Time;durP1;ratioP1;P1;durP2;ratioP2;P2;SDS_P1;SDS_P2;PMS_P1;PMS_P2;Temp;Humidity;BMP_temperature;BMP_pressure;BME280_temperature;BME280_humidity;BME280_pressure;Samples;Min_cycle;Max_cycle;Signal;HPM_P1;HPM_P2
2021/01/06 00:00:58;;;;;;;7.95;3.30;;;;;;;-8.57;91.47;102005.38;4992173;28;20054;-65
2021/01/06 00:03:47;;;;;;;9.20;3.95;;;;;;;-8.61;91.91;102004.41;4990963;28;20101;-64
2021/01/06 00:06:37;;;;;;;8.20;3.65;;;;;;;-8.59;92.34;102000.25;4992040;28;20502;-65
2021/01/06 00:09:23;;;;;;;9.05;3.72;;;;;;;-8.60;91.63;102003.59;4991340;28;20086;-64
2021/01/06 00:12:10;;;;;;;10.18;4.45;;;;;;;-8.58;91.73;101996.91;4991898;28;20518;-64
2021/01/06 00:14:56;;;;;;;9.18;4.07;;;;;;;-8.56;91.71;102005.41;4991025;28;20054;-64
2021/01/06 00:17:43;;;;;;;9.35;4.18;;;;;;;-8.63;91.16;101997.56;4991988;28;20043;-64
2021/01/06 00:20:31;;;;;;;10.27;4.00;;;;;;;-8.62;91.21;101992.53;4990936;28;20042;-64
2021/01/06 00:23:18;;;;;;;10.80;3.60;;;;;;;-8.64;91.60;101993.28;4991907;28;20161;-64
2021/01/06 00:26:04;;;;;;;12.15;4.22;;;;;;;-8.57;91.62;101985.94;4991562;28;20074;-64
2021/01/06 00:28:51;;;;;;;11.05;4.65;;;;;;;-8.57;91.70;101991.03;4991457;28;20081;-64
2021/01/06 00:31:44;;;;;;;10.13;4.30;;;;;;;-8.54;91.83;101988.59;4991395;28;20041;-63
2021/01/06 00:34:30;;;;;;;9.77;4.20;;;;;;;-8.55;90.86;101993.59;4991169;28;20058;-63
2021/01/06 00:37:16;;;;;;;9.95;4.82;;;;;;;-8.54;91.38;101985.22;4991393;28;20043;-65
2021/01/06 00:40:04;;;;;;;9.57;4.40;;;;;;;-8.61;90.77;101990.88;4991244;28;20057;-64
2021/01/06 00:42:51;;;;;;;9.00;4.13;;;;;;;-8.58;91.99;101990.97;5005342;28;20058;-64
2021/01/06 00:45:37;;;;;;;11.88;3.50;;;;;;;-8.56;91.01;101995.28;4990748;28;20046;-63
2021/01/06 00:48:24;;;;;;;9.73;4.05;;;;;;;-8.67;91.18;101985.59;4991459;28;20097;-64
2021/01/06 00:51:16;;;;;;;12.32;4.53;;;;;;;-8.62;91.80;101986.63;4991559;28;20398;-64
2021/01/06 00:54:02;;;;;;;11.73;4.97;;;;;;;-8.63;91.24;101982.34;4991296;28;20085;-64
2021/01/06 00:56:49;;;;;;;12.57;5.38;;;;;;;-8.64;91.04;101986.56;4982361;28;20108;-65
2021/01/06 00:59:36;;;;;;;13.10;4.55;;;;;;;-8.64;91.64;101985.69;4987702;28;20398;-65
2021/01/06 01:02:22;;;;;;;9.77;4.38;;;;;;;-8.66;91.44;101982.25;5002212;28;20063;-64
2021/01/06 01:05:10;;;;;;;12.40;5.43;;;;;;;-8.63;91.95;101984.91;4976629;28;20058;-64
2021/01/06 01:07:58;;;;;;;10.15;3.97;;;;;;;-8.67;91.79;101968.69;4991081;28;20055;-64
2021/01/06 01:10:47;;;;;;;13.77;5.30;;;;;;;-8.60;91.69;101974.84;4991521;28;20046;-64
2021/01/06 01:13:33;;;;;;;9.68;4.50;;;;;;;-8.58;92.08;101963.94;4998764;28;20051;-64
2021/01/06 01:16:21;;;;;;;10.95;4.85;;;;;;;-8.56;91.51;101967.38;4991158;28;20096;-64
2021/01/06 01:19:12;;;;;;;13.27;4.78;;;;;;;-8.53;91.54;101959.88;4991027;28;20050;-64
2021/01/06 01:21:59;;;;;;;10.65;4.70;;;;;;;-8.52;92.22;101961.59;4991080;28;20058;-64
2021/01/06 01:24:45;;;;;;;10.43;4.68;;;;;;;-8.53;91.15;101956.50;4990754;28;20066;-64
2021/01/06 01:27:31;;;;;;;10.45;4.55;;;;;;;-8.51;92.12;101965.00;4991069;28;20124;-64
2021/01/06 01:30:23;;;;;;;9.93;3.70;;;;;;;-8.57;90.92;101952.97;5004195;28;20149;-64
2021/01/06 01:33:11;;;;;;;13.00;5.30;;;;;;;-8.60;91.66;101963.00;4990645;28;20058;-64
2021/01/06 01:35:59;;;;;;;10.90;3.90;;;;;;;-8.61;92.14;101953.69;4990579;28;20564;-64
2021/01/06 01:38:45;;;;;;;10.50;4.22;;;;;;;-8.60;91.40;101944.41;4992698;28;20047;-64
2021/01/06 01:41:32;;;;;;;14.25;4.43;;;;;;;-8.58;91.25;101946.19;5008171;28;20057;-64
2021/01/06 01:44:18;;;;;;;9.73;3.95;;;;;;;-8.54;92.08;101945.50;4994521;28;20050;-64
2021/01/06 01:47:15;;;;;;;11.02;5.22;;;;;;;-8.58;91.48;101948.72;4994036;28;20057;-64
2021/01/06 01:50:04;;;;;;;8.18;3.25;;;;;;;-8.57;90.62;101950.44;4993761;28;20148;-65
2021/01/06 01:52:57;;;;;;;11.35;5.40;;;;;;;-8.56;91.81;101948.78;4980698;28;20047;-66
2021/01/06 01:55:43;;;;;;;12.80;4.07;;;;;;;-8.54;91.73;101947.16;4993584;28;20062;-64
2021/01/06 01:58:33;;;;;;;10.50;4.10;;;;;;;-8.55;90.79;101943.75;4994861;28;20046;-64
2021/01/06 02:01:20;;;;;;;11.15;4.40;;;;;;;-8.57;91.05;101936.91;4994424;28;20047;-64
2021/01/06 02:04:18;;;;;;;9.27;3.92;;;;;;;-8.55;91.84;101946.28;4994050;28;20050;-64
2021/01/06 02:07:10;;;;;;;11.27;4.40;;;;;;;-8.60;91.38;101949.47;4993985;28;20477;-64
2021/01/06 02:10:18;;;;;;;9.88;4.38;;;;;;;-8.58;91.81;101943.66;4993358;28;20141;-65
2021/01/06 02:13:12;;;;;;;12.32;4.72;;;;;;;-8.58;91.36;101940.25;4993318;28;20054;-64
2021/01/06 02:16:26;;;;;;;10.55;4.15;;;;;;;-8.58;92.04;101935.19;4993586;28;20505;-64
2021/01/06 02:19:16;;;;;;;10.95;4.38;;;;;;;-8.56;91.64;101933.56;4994056;28;20050;-64
2021/01/06 02:22:04;;;;;;;10.55;4.30;;;;;;;-8.59;91.20;101931.78;4993936;28;20058;-64
2021/01/06 02:24:52;;;;;;;11.00;3.95;;;;;;;-8.57;91.13;101936.91;4993587;28;20047;-64
2021/01/06 02:27:39;;;;;;;11.93;5.03;;;;;;;-8.55;91.81;101926.00;4994017;28;20054;-64
2021/01/06 02:30:26;;;;;;;12.15;4.85;;;;;;;-8.55;91.00;101931.06;5007057;28;20042;-64
2021/01/06 02:33:13;;;;;;;13.13;5.03;;;;;;;-8.55;91.85;101931.06;4993747;28;20050;-64
2021/01/06 02:36:00;;;;;;;11.63;4.32;;;;;;;-8.54;91.22;101929.41;4993153;28;20375;-64
2021/01/06 02:38:46;;;;;;;10.50;3.90;;;;;;;-8.56;91.77;101928.47;4993488;28;20053;-64
2021/01/06 02:41:33;;;;;;;11.90;4.72;;;;;;;-8.55;91.31;101923.44;4993871;28;20042;-64
2021/01/06 02:44:20;;;;;;;8.25;4.03;;;;;;;-8.52;92.41;101928.63;4993494;28;20129;-64
2021/01/06 02:47:06;;;;;;;8.65;3.97;;;;;;;-8.52;91.32;101920.16;4992673;28;20109;-64
2021/01/06 02:49:53;;;;;;;10.77;4.65;;;;;;;-8.53;92.23;101926.06;4986441;28;20042;-64
2021/01/06 02:53:00;;;;;;;10.00;4.43;;;;;;;-8.51;91.03;101927.81;4981632;28;20587;-65
2021/01/06 02:55:48;;;;;;;9.45;4.07;;;;;;;-8.53;91.49;101921.84;4982848;28;20054;-64
2021/01/06 02:58:36;;;;;;;10.10;4.63;;;;;;;-8.54;91.94;101920.13;4991860;28;20047;-63
2021/01/06 03:01:26;;;;;;;9.40;4.35;;;;;;;-8.50;91.30;101923.59;4993306;28;20611;-64
2021/01/06 03:04:16;;;;;;;11.77;4.63;;;;;;;-8.49;91.51;101921.97;4983078;28;20386;-64
2021/01/06 03:07:05;;;;;;;11.60;4.63;;;;;;;-8.49;90.89;101929.56;4997519;28;20203;-64
2021/01/06 03:09:52;;;;;;;9.02;3.75;;;;;;;-8.49;91.81;101919.41;4985855;28;20112;-64
2021/01/06 03:12:38;;;;;;;9.77;4.60;;;;;;;-8.49;92.19;101925.34;4984476;28;20057;-64
2021/01/06 03:15:28;;;;;;;10.35;4.60;;;;;;;-8.49;92.07;101922.81;4981967;28;20070;-64
2021/01/06 03:18:14;;;;;;;9.65;4.45;;;;;;;-8.47;91.70;101920.31;4992355;28;20151;-64
2021/01/06 03:21:08;;;;;;;10.07;4.68;;;;;;;-8.47;91.21;101913.56;4984652;28;20105;-64
2021/01/06 03:23:55;;;;;;;8.77;4.50;;;;;;;-8.47;91.20;101930.47;4982437;28;20043;-64
2021/01/06 03:26:44;;;;;;;9.95;4.90;;;;;;;-8.45;91.75;101918.69;4987536;28;20042;-64
2021/01/06 03:29:32;;;;;;;10.85;4.63;;;;;;;-8.46;91.44;101927.97;4992800;28;20137;-65
2021/01/06 03:32:32;;;;;;;11.98;5.80;;;;;;;-8.45;91.53;101911.97;4986082;28;20046;-63
2021/01/06 03:35:33;;;;;;;11.88;4.72;;;;;;;-8.41;91.11;101916.28;4999249;28;20150;-64
2021/01/06 03:38:23;;;;;;;9.55;4.25;;;;;;;-8.40;91.96;101914.63;4980188;28;20065;-64
2021/01/06 03:41:11;;;;;;;13.00;4.70;;;;;;;-8.44;91.12;101921.28;4979901;28;20054;-64
2021/01/06 03:44:06;;;;;;;11.55;4.22;;;;;;;-8.49;90.46;101922.81;4992429;28;20062;-63
2021/01/06 03:47:19;;;;;;;11.15;5.05;;;;;;;-8.47;91.92;101910.16;5000344;28;20086;-64
2021/01/06 03:50:11;;;;;;;12.07;4.30;;;;;;;-8.57;91.04;101917.47;4987018;28;20112;-64
2021/01/06 03:53:04;;;;;;;12.00;3.53;;;;;;;-8.48;91.58;101911.00;4990517;28;20050;-64
2021/01/06 03:56:00;;;;;;;11.68;4.32;;;;;;;-8.48;92.05;101906.78;4991407;28;20058;-64
2021/01/06 03:59:01;;;;;;;11.75;4.40;;;;;;;-8.48;92.07;101899.16;4992030;28;20089;-64
2021/01/06 04:01:50;;;;;;;10.45;4.05;;;;;;;-8.46;92.21;101899.22;4991260;28;20497;-63
2021/01/06 04:04:49;;;;;;;10.50;4.70;;;;;;;-8.44;91.03;101890.84;4991685;28;20516;-63
2021/01/06 04:07:42;;;;;;;11.95;4.30;;;;;;;-8.49;90.94;101891.53;5005384;28;20054;-64
2021/01/06 04:10:34;;;;;;;10.70;4.60;;;;;;;-8.49;91.63;101883.91;4977369;28;20050;-64
2021/01/06 04:13:21;;;;;;;8.30;3.95;;;;;;;-8.52;91.48;101880.44;4991253;28;20555;-64
2021/01/06 04:16:07;;;;;;;10.55;3.80;;;;;;;-8.55;91.17;101879.47;4991473;28;20056;-64
2021/01/06 04:18:54;;;;;;;11.93;4.15;;;;;;;-8.59;91.11;101872.59;4991869;28;20050;-64
2021/01/06 04:21:41;;;;;;;11.27;4.32;;;;;;;-8.64;91.17;101881.72;4992448;28;20053;-64
2021/01/06 04:24:27;;;;;;;11.63;4.60;;;;;;;-8.66;90.77;101875.75;4991618;28;20097;-64
2021/01/06 04:27:18;;;;;;;5.78;3.25;;;;;;;-8.70;91.06;101884.91;4990002;28;20088;-63
2021/01/06 04:30:09;;;;;;;10.45;3.75;;;;;;;-8.73;90.76;101883.94;4991666;28;20117;-64
2021/01/06 04:32:57;;;;;;;9.07;3.78;;;;;;;-8.80;90.49;101883.75;4991017;28;20054;-64
2021/01/06 04:35:43;;;;;;;8.95;3.95;;;;;;;-8.80;90.21;101882.91;4990952;28;20493;-64
2021/01/06 04:38:34;;;;;;;6.88;2.85;;;;;;;-8.83;90.66;101883.69;4991302;28;20085;-63
2021/01/06 04:41:39;;;;;;;8.95;4.50;;;;;;;-8.85;90.91;101876.81;4991957;28;20097;-64
2021/01/06 04:44:45;;;;;;;9.02;3.20;;;;;;;-8.94;90.06;101879.91;4990996;28;20256;-64
2021/01/06 04:48:08;;;;;;;7.75;3.35;;;;;;;-9.00;89.09;101883.91;4985901;28;20442;-63
2021/01/06 04:51:23;;;;;;;8.85;3.88;;;;;;;-9.02;89.52;101888.91;4979563;28;20679;-65
2021/01/06 04:54:33;;;;;;;10.75;4.28;;;;;;;-9.13;90.19;101882.63;4989559;28;20054;-64
2021/01/06 04:57:26;;;;;;;8.32;3.40;;;;;;;-9.19;90.08;101884.94;4979814;28;20096;-64
2021/01/06 05:00:21;;;;;;;9.85;4.72;;;;;;;-9.22;89.66;101882.31;4990919;28;20120;-64
2021/01/06 05:03:52;;;;;;;14.00;4.78;;;;;;;-9.25;89.90;101882.22;4979875;28;20082;-64
2021/01/06 05:06:49;;;;;;;9.32;4.03;;;;;;;-9.30;91.09;101887.13;4971791;28;20097;-64
2021/01/06 05:09:47;;;;;;;10.88;4.00;;;;;;;-9.32;90.95;101883.66;4980939;28;20053;-64
2021/01/06 05:12:39;;;;;;;12.75;4.60;;;;;;;-9.33;89.99;101887.84;4988717;28;20103;-64
2021/01/06 05:15:39;;;;;;;7.38;3.67;;;;;;;-9.37;90.64;101880.94;4995324;28;20382;-65
2021/01/06 05:18:26;;;;;;;8.20;3.50;;;;;;;-9.32;90.96;101873.53;4982106;28;20448;-67
2021/01/06 05:21:16;;;;;;;12.93;4.90;;;;;;;-9.30;91.97;101875.31;4989536;28;20433;-64
2021/01/06 05:24:22;;;;;;;11.80;4.47;;;;;;;-9.32;90.77;101876.06;4992157;28;20452;-63
2021/01/06 05:27:17;;;;;;;11.95;4.57;;;;;;;-9.29;90.96;101877.03;4993383;28;20129;-63
2021/01/06 05:30:20;;;;;;;9.65;4.03;;;;;;;-9.27;90.35;101872.00;4984574;28;20552;-64
2021/01/06 05:33:09;;;;;;;8.88;3.70;;;;;;;-9.31;90.37;101872.69;4983814;28;20497;-65
2021/01/06 05:35:55;;;;;;;9.70;4.13;;;;;;;-9.31;91.83;101876.09;4994498;28;20046;-64
2021/01/06 05:38:42;;;;;;;9.18;3.45;;;;;;;-9.32;90.09;101868.44;5000985;28;20047;-64
2021/01/06 05:41:28;;;;;;;10.02;3.42;;;;;;;-9.29;91.27;101863.50;4985334;28;20460;-64
2021/01/06 05:44:15;;;;;;;11.00;3.95;;;;;;;-9.31;91.09;101867.63;4993982;28;20522;-63
2021/01/06 05:47:13;;;;;;;12.57;4.55;;;;;;;-9.27;91.51;101868.63;4980493;28;20054;-64
2021/01/06 05:50:07;;;;;;;12.73;5.25;;;;;;;-9.26;91.13;101866.13;4987726;28;20109;-64
2021/01/06 05:53:22;;;;;;;10.77;4.75;;;;;;;-9.27;90.49;101866.09;5006627;28;20043;-65
2021/01/06 05:56:24;;;;;;;9.68;4.10;;;;;;;-9.23;91.12;101873.84;4994086;28;20068;-64
2021/01/06 05:59:10;;;;;;;15.07;5.43;;;;;;;-9.22;91.36;101872.16;4994749;28;20101;-64
2021/01/06 06:02:21;;;;;;;10.57;4.57;;;;;;;-9.25;90.05;101867.88;4994356;28;20074;-67
2021/01/06 06:05:26;;;;;;;8.85;3.22;;;;;;;-9.25;91.34;101872.94;4993668;28;20058;-64
2021/01/06 06:08:27;;;;;;;10.30;4.18;;;;;;;-9.24;91.39;101867.06;4994830;28;20058;-64
2021/01/06 06:11:32;;;;;;;12.93;5.50;;;;;;;-9.22;91.78;101869.63;4993374;28;20051;-63
2021/01/06 06:14:37;;;;;;;;;;;;;;;-9.22;91.59;101878.09;4994408;28;20078;-64
2021/01/06 06:17:53;;;;;;;10.88;4.43;;;;;;;-9.20;90.80;101889.16;4993306;28;19922;-64
2021/01/06 06:20:55;;;;;;;10.95;4.28;;;;;;;-9.21;90.89;101877.28;4994036;28;20062;-64
2021/01/06 06:23:49;;;;;;;8.23;3.90;;;;;;;-9.21;91.11;101878.94;4993340;28;20050;-64
2021/01/06 06:26:58;;;;;;;14.02;5.07;;;;;;;-9.20;91.47;101878.16;4993107;28;20421;-64
2021/01/06 06:30:06;;;;;;;11.55;5.13;;;;;;;-9.21;91.56;101873.88;4993772;28;20055;-64
2021/01/06 06:32:53;;;;;;;10.40;4.32;;;;;;;-9.20;91.33;101881.56;4993621;28;20484;-64
2021/01/06 06:35:46;;;;;;;13.45;3.90;;;;;;;-9.21;90.99;101884.88;4993343;28;20453;-64
2021/01/06 06:38:40;;;;;;;8.55;4.05;;;;;;;-9.20;91.44;101881.56;4993533;28;20104;-64
2021/01/06 06:41:36;;;;;;;9.90;3.77;;;;;;;-9.19;90.82;101882.41;4993853;28;20518;-64
2021/01/06 06:44:28;;;;;;;8.02;3.83;;;;;;;-9.18;90.73;101881.59;5007326;28;20293;-64
2021/01/06 06:47:17;;;;;;;9.23;4.10;;;;;;;-9.19;90.41;101890.88;5006780;28;20050;-64
2021/01/06 06:50:44;;;;;;;10.98;4.65;;;;;;;-9.22;90.75;101884.84;4993081;28;20105;-65
2021/01/06 06:53:42;;;;;;;12.55;4.35;;;;;;;-9.22;91.59;101887.38;4993549;28;20046;-63
2021/01/06 06:56:39;;;;;;;10.05;4.55;;;;;;;-9.24;91.49;101891.53;4992554;28;20057;-64
2021/01/06 06:59:33;;;;;;;10.25;4.30;;;;;;;-9.21;91.26;101896.69;5008207;28;20109;-64
2021/01/06 07:02:20;;;;;;;7.50;3.20;;;;;;;-9.22;90.70;101897.50;4992957;28;20057;-64
2021/01/06 07:05:07;;;;;;;11.50;4.78;;;;;;;-9.20;91.54;101895.91;4993058;28;20497;-64
2021/01/06 07:07:57;;;;;;;15.48;4.97;;;;;;;-9.19;92.25;101901.00;4992100;28;20066;-64
2021/01/06 07:11:16;;;;;;;10.88;4.30;;;;;;;-9.17;90.75;101894.31;4996028;28;20444;-64
2021/01/06 07:14:36;;;;;;;10.80;4.57;;;;;;;-9.19;90.85;101900.16;5006280;28;20145;-64
2021/01/06 07:17:38;;;;;;;9.60;3.72;;;;;;;-9.18;90.36;101906.94;4991998;28;20050;-64
2021/01/06 07:20:43;;;;;;;11.65;4.53;;;;;;;-9.18;91.48;101902.72;4992783;28;20061;-64
2021/01/06 07:23:33;;;;;;;11.10;3.88;;;;;;;-9.15;91.28;101907.91;4991717;28;20135;-64
2021/01/06 07:26:26;;;;;;;10.63;4.20;;;;;;;-9.13;90.76;101910.50;4992079;28;20073;-64
2021/01/06 07:29:15;;;;;;;13.48;5.03;;;;;;;-9.13;91.67;101905.41;4992557;28;20050;-64
2021/01/06 07:32:10;;;;;;;12.98;4.80;;;;;;;-9.13;91.71;101903.75;4992350;28;20047;-64
2021/01/06 07:34:58;;;;;;;14.98;4.68;;;;;;;-9.11;91.45;101911.44;4992600;28;20501;-64
2021/01/06 07:37:47;;;;;;;11.48;4.88;;;;;;;-9.09;91.60;101904.72;4991962;28;20042;-65
2021/01/06 07:40:37;;;;;;;15.73;5.60;;;;;;;-9.07;90.96;101913.22;5006256;28;20046;-64
2021/01/06 07:43:30;;;;;;;10.50;4.28;;;;;;;-9.05;90.73;101912.50;4982772;28;20129;-64
2021/01/06 07:46:21;;;;;;;12.77;5.22;;;;;;;-9.03;90.81;101917.59;4992285;28;20050;-65
2021/01/06 07:49:11;;;;;;;10.57;4.55;;;;;;;-9.01;91.23;101915.13;4989291;28;20156;-64
2021/01/06 07:52:36;;;;;;;8.85;4.35;;;;;;;-9.00;91.27;101912.66;4989634;28;20102;-64
2021/01/06 07:55:40;;;;;;;10.52;4.28;;;;;;;-8.99;90.18;101914.38;4991456;28;20064;-63
2021/01/06 07:58:52;;;;;;;9.70;4.53;;;;;;;-8.96;90.93;101911.09;4992102;28;20046;-65
2021/01/06 08:01:47;;;;;;;10.05;4.80;;;;;;;-8.97;91.18;101912.75;4991759;28;20050;-64
2021/01/06 08:04:40;;;;;;;8.88;4.07;;;;;;;-8.96;91.34;101917.00;4991964;28;20050;-64
2021/01/06 08:07:27;;;;;;;8.00;4.30;;;;;;;-8.95;91.10;101915.34;5001875;28;20057;-65
2021/01/06 08:10:30;;;;;;;9.75;4.00;;;;;;;-8.89;90.38;101913.00;4991282;28;20058;-64
2021/01/06 08:13:28;;;;;;;10.13;4.13;;;;;;;-8.89;90.65;101908.78;4991208;28;20141;-64
2021/01/06 08:16:42;;;;;;;10.98;4.22;;;;;;;-8.88;91.23;101910.50;4990613;28;20100;-64
2021/01/06 08:19:42;;;;;;;8.70;4.07;;;;;;;-8.85;90.63;101907.22;4991175;28;20461;-64
2021/01/06 08:22:38;;;;;;;9.77;4.25;;;;;;;-8.82;90.67;101914.94;4991759;28;20074;-67
2021/01/06 08:25:30;;;;;;;9.98;4.05;;;;;;;-8.81;91.10;101912.47;4991232;28;20054;-64
2021/01/06 08:28:25;;;;;;;9.30;3.83;;;;;;;-8.78;91.09;101910.03;4991244;28;20089;-64
2021/01/06 08:31:17;;;;;;;12.73;5.13;;;;;;;-8.73;90.04;101912.72;4991231;28;20046;-64
2021/01/06 08:34:05;;;;;;;11.13;4.68;;;;;;;-8.74;91.05;101917.72;4991142;28;20050;-65
2021/01/06 08:36:58;;;;;;;11.02;4.65;;;;;;;-8.73;89.50;101911.84;4990765;28;20479;-65
2021/01/06 08:39:56;;;;;;;12.82;4.78;;;;;;;-8.70;90.15;101911.94;4991447;28;20074;-64
2021/01/06 08:42:46;;;;;;;9.73;4.90;;;;;;;-8.69;89.45;101913.66;4990867;28;20081;-64
2021/01/06 08:45:36;;;;;;;11.70;4.32;;;;;;;-8.69;89.41;101911.13;4990786;28;20046;-65
2021/01/06 08:48:25;;;;;;;11.13;4.50;;;;;;;-8.69;89.54;101909.47;4990193;28;20501;-63
2021/01/06 08:51:15;;;;;;;13.25;5.70;;;;;;;-8.68;90.13;101906.13;5004885;28;20104;-64
2021/01/06 08:54:39;;;;;;;10.43;4.10;;;;;;;-8.69;90.07;101906.06;4991112;28;20083;-64
2021/01/06 08:57:35;;;;;;;9.75;4.55;;;;;;;-8.66;89.43;101907.03;4996698;28;20047;-64
2021/01/06 09:00:28;;;;;;;10.00;4.45;;;;;;;-8.63;89.30;101904.59;4991294;28;20077;-64
2021/01/06 09:03:59;;;;;;;16.33;6.80;;;;;;;-8.63;88.88;101897.00;4995640;28;20100;-64
2021/01/06 09:07:12;;;;;;;221.57;60.70;;;;;;;-8.63;89.14;101907.16;4983384;28;20050;-64
2021/01/06 09:10:10;;;;;;;38.38;12.82;;;;;;;-8.69;89.45;101894.25;4988272;28;20488;-64
2021/01/06 09:13:08;;;;;;;21.98;7.85;;;;;;;-8.71;89.23;101903.50;4990691;28;20140;-64
2021/01/06 09:16:23;;;;;;;12.77;5.22;;;;;;;-8.68;89.22;101903.59;4990415;28;20516;-65
2021/01/06 09:19:27;;;;;;;8.73;3.65;;;;;;;-8.67;88.81;101900.25;4991241;28;20042;-64
2021/01/06 09:22:16;;;;;;;;;;;;;;;-8.64;89.30;101896.94;4991658;28;20054;-66
2021/01/06 09:25:04;;;;;;;18.02;8.20;;;;;;;-8.61;89.47;101889.44;4990945;28;19922;-64
2021/01/06 09:27:52;;;;;;;16.77;7.15;;;;;;;-8.63;89.38;101898.69;4990514;28;20039;-64
2021/01/06 09:30:39;;;;;;;13.40;7.53;;;;;;;-8.63;89.47;101884.31;4990354;28;20054;-64
2021/01/06 09:33:30;;;;;;;9.38;4.15;;;;;;;-8.62;88.91;101901.25;4989154;28;20042;-64
2021/01/06 09:36:17;;;;;;;8.55;4.18;;;;;;;-8.62;89.86;101897.84;4991075;28;20065;-64
2021/01/06 09:39:07;;;;;;;9.55;4.18;;;;;;;-8.58;89.02;101892.94;4990908;28;20482;-63
2021/01/06 09:41:55;;;;;;;10.85;4.55;;;;;;;-8.54;89.39;101886.31;4990616;28;20141;-63
2021/01/06 09:44:42;;;;;;;13.18;5.38;;;;;;;-8.52;89.25;101885.53;5004957;28;20059;-63
2021/01/06 09:47:36;;;;;;;13.95;5.25;;;;;;;-8.50;88.76;101885.56;4990915;28;20433;-64
2021/01/06 09:50:37;;;;;;;8.65;4.28;;;;;;;-8.46;89.86;101887.38;4990882;28;20088;-65
2021/01/06 09:53:27;;;;;;;9.80;4.70;;;;;;;-8.44;89.42;101888.31;4991074;28;20398;-65
2021/01/06 09:56:15;;;;;;;9.98;3.97;;;;;;;-8.42;89.42;101891.75;5003652;28;20058;-63
2021/01/06 09:59:11;;;;;;;9.10;4.32;;;;;;;-8.37;89.25;101894.44;4991427;28;20050;-64
2021/01/06 10:02:05;;;;;;;9.98;4.00;;;;;;;-8.35;89.10;101885.19;4994589;28;20074;-64
2021/01/06 10:04:57;;;;;;;11.85;4.60;;;;;;;-8.35;89.37;101878.44;4994769;28;20140;-63
2021/01/06 10:08:27;;;;;;;9.25;4.72;;;;;;;-8.34;89.29;101879.28;4993816;28;20081;-63
2021/01/06 10:11:37;;;;;;;7.45;3.42;;;;;;;-8.32;89.79;101888.66;4994542;28;20213;-64
2021/01/06 10:14:31;;;;;;;9.45;4.38;;;;;;;-8.32;89.19;101886.09;4994708;28;20113;-64
2021/01/06 10:17:25;;;;;;;10.23;4.13;;;;;;;-8.30;89.94;101881.97;4993881;28;20050;-63
2021/01/06 10:20:22;;;;;;;9.82;4.70;;;;;;;-8.25;89.68;101870.28;4994370;28;20270;-63
2021/01/06 10:23:18;;;;;;;9.43;4.15;;;;;;;-8.21;89.44;101875.44;4981107;28;20516;-63
2021/01/06 10:26:40;;;;;;;7.90;3.75;;;;;;;-8.18;89.81;101866.25;4993548;28;20081;-67
2021/01/06 10:29:30;;;;;;;8.93;4.28;;;;;;;-8.14;89.69;101870.59;4993900;28;20055;-64
2021/01/06 10:32:16;;;;;;;9.07;3.75;;;;;;;-8.11;89.47;101860.56;4993898;28;20046;-64
2021/01/06 10:35:27;;;;;;;9.82;3.97;;;;;;;-8.06;90.07;101866.63;5007784;28;20536;-64
2021/01/06 10:38:42;;;;;;;7.78;4.13;;;;;;;-8.02;90.19;101865.03;4993224;28;20514;-64
2021/01/06 10:41:32;;;;;;;8.45;4.72;;;;;;;-8.02;89.98;101855.75;4993915;28;20057;-63
2021/01/06 10:44:52;;;;;;;10.43;4.85;;;;;;;-8.03;88.79;101853.16;4994075;28;20050;-64
2021/01/06 10:47:48;;;;;;;8.80;4.20;;;;;;;-8.03;89.19;101851.47;4992991;28;20081;-65
2021/01/06 10:50:43;;;;;;;9.70;4.85;;;;;;;-8.00;90.05;101846.50;4993204;28;20085;-64
2021/01/06 10:53:32;;;;;;;7.75;3.95;;;;;;;-8.05;89.81;101848.03;4993416;28;20072;-65
2021/01/06 10:56:18;;;;;;;10.88;5.15;;;;;;;-8.02;89.49;101849.81;5004498;28;20054;-63
2021/01/06 10:59:05;;;;;;;10.88;5.75;;;;;;;-8.01;90.22;101847.31;4993566;28;20049;-64
2021/01/06 11:02:35;;;;;;;10.45;4.40;;;;;;;-7.99;89.18;101844.81;4993430;28;20046;-64
2021/01/06 11:05:27;;;;;;;8.05;3.83;;;;;;;-8.01;89.80;101849.00;4993451;28;20174;-64
2021/01/06 11:08:20;;;;;;;6.97;3.50;;;;;;;-7.96;89.81;101844.06;4995780;28;20429;-63
2021/01/06 11:11:09;;;;;;;8.00;4.05;;;;;;;-7.95;90.16;101844.09;4992280;28;20105;-64
2021/01/06 11:14:29;;;;;;;6.80;3.47;;;;;;;-7.89;90.16;101845.94;4992743;28;20437;-63
2021/01/06 11:17:19;;;;;;;7.30;3.65;;;;;;;-7.88;89.50;101847.66;4989519;28;20049;-63
2021/01/06 11:20:35;;;;;;;8.10;3.75;;;;;;;-7.86;89.51;101846.91;4990372;28;20056;-64
2021/01/06 11:23:26;;;;;;;7.65;3.83;;;;;;;-7.87;89.79;101845.19;4993202;28;20058;-64
2021/01/06 11:26:23;;;;;;;7.55;3.40;;;;;;;-7.89;89.84;101836.63;4992945;28;20046;-64
2021/01/06 11:29:10;;;;;;;8.65;3.28;;;;;;;-7.86;89.94;101843.50;4992747;28;20069;-64
2021/01/06 11:31:59;;;;;;;6.97;3.30;;;;;;;-7.86;90.28;101839.28;4993104;28;20101;-64
2021/01/06 11:34:53;;;;;;;7.72;3.58;;;;;;;-7.86;90.57;101839.28;4993071;28;20052;-64
2021/01/06 11:37:42;;;;;;;8.68;4.03;;;;;;;-7.89;90.59;101828.16;4993104;28;20445;-64
2021/01/06 11:40:29;;;;;;;7.93;3.38;;;;;;;-7.86;90.44;101831.66;4992602;28;20046;-65
2021/01/06 11:43:27;;;;;;;7.30;3.45;;;;;;;-7.84;90.17;101826.63;4991956;28;20096;-64
2021/01/06 11:46:40;;;;;;;8.48;4.10;;;;;;;-7.85;90.14;101824.91;4991875;28;20398;-64
2021/01/06 11:49:37;;;;;;;7.68;3.30;;;;;;;-7.85;89.93;101820.69;4992591;28;20069;-64
2021/01/06 11:52:37;;;;;;;6.22;2.88;;;;;;;-7.85;90.04;101817.28;4993023;28;20073;-64
2021/01/06 11:55:42;;;;;;;8.10;2.72;;;;;;;-7.87;90.34;101817.25;4992526;28;20057;-64
2021/01/06 11:58:31;;;;;;;7.53;3.85;;;;;;;-7.87;90.79;101809.63;4992757;28;20398;-65
2021/01/06 12:01:56;;;;;;;10.10;3.45;;;;;;;-7.89;89.68;101808.72;4992142;28;20930;-63
2021/01/06 12:05:13;;;;;;;6.13;2.83;;;;;;;-7.90;89.89;101811.22;4992319;28;20042;-64
2021/01/06 12:08:18;;;;;;;6.82;3.03;;;;;;;-7.95;90.52;101811.09;4992339;28;20054;-64
2021/01/06 12:11:05;;;;;;;7.88;3.38;;;;;;;-7.93;90.17;101811.13;4991794;28;20050;-65
2021/01/06 12:14:02;;;;;;;8.65;3.50;;;;;;;-7.96;90.30;101804.28;4991908;28;20046;-65
2021/01/06 12:16:54;;;;;;;8.23;3.80;;;;;;;-7.99;91.19;101812.66;4991838;28;20065;-63
2021/01/06 12:20:03;;;;;;;8.07;3.72;;;;;;;-8.00;90.41;101813.50;4990026;28;20062;-64
2021/01/06 12:23:15;;;;;;;6.45;3.40;;;;;;;-7.97;90.43;101809.31;4991748;28;20105;-64
2021/01/06 12:27:02;;;;;;;9.15;4.13;;;;;;;-8.02;90.54;101806.66;4992030;28;20054;-66
2021/01/06 12:29:51;;;;;;;9.50;3.47;;;;;;;-8.05;90.72;101806.56;4937748;29;20059;-64
2021/01/06 12:33:13;;;;;;;9.00;3.67;;;;;;;-8.06;91.37;101794.69;4991864;28;20046;-64
2021/01/06 12:36:10;;;;;;;8.57;4.00;;;;;;;-8.04;90.64;101798.13;4991681;28;20082;-66
2021/01/06 12:39:25;;;;;;;8.93;3.97;;;;;;;-8.02;91.73;101799.91;4991230;28;20077;-64
2021/01/06 12:42:14;;;;;;;8.82;3.25;;;;;;;-8.04;90.75;101785.44;4991671;28;20105;-63
2021/01/06 12:45:19;;;;;;;8.07;3.83;;;;;;;-8.03;91.37;101787.16;5005164;28;20112;-64
2021/01/06 12:48:08;;;;;;;6.97;3.55;;;;;;;-8.02;90.92;101786.38;4991452;28;20137;-63
2021/01/06 12:51:08;;;;;;;7.05;3.35;;;;;;;-8.05;91.07;101787.13;4990789;28;20054;-63
2021/01/06 12:54:08;;;;;;;8.90;3.92;;;;;;;-8.05;91.40;101778.66;4995788;28;20394;-63
2021/01/06 12:57:06;;;;;;;7.13;3.75;;;;;;;-8.04;91.64;101785.44;4991520;28;20498;-64
2021/01/06 13:00:01;;;;;;;9.55;4.40;;;;;;;-8.06;91.59;101777.78;4990870;28;20128;-64
2021/01/06 13:02:48;;;;;;;9.48;3.83;;;;;;;-8.04;91.23;101775.28;4991688;28;20042;-64
2021/01/06 13:05:35;;;;;;;7.03;3.22;;;;;;;-8.07;91.15;101780.25;4991440;28;20409;-64
2021/01/06 13:08:32;;;;;;;9.43;3.75;;;;;;;-8.05;91.55;101779.50;5004902;28;20106;-64
2021/01/06 13:11:42;;;;;;;5.97;2.97;;;;;;;-8.08;90.95;101776.00;4989824;28;20046;-63
2021/01/06 13:14:35;;;;;;;8.00;3.28;;;;;;;-8.06;90.94;101774.41;4991227;28;20125;-64
2021/01/06 13:17:44;;;;;;;9.40;3.50;;;;;;;-8.04;90.58;101767.69;4991469;28;20047;-64
2021/01/06 13:21:01;;;;;;;7.93;3.53;;;;;;;-8.07;90.91;101772.66;4990677;28;20100;-66
2021/01/06 13:23:54;;;;;;;7.13;3.38;;;;;;;-8.06;91.13;101776.94;4991372;28;20081;-64
2021/01/06 13:27:04;;;;;;;8.13;3.88;;;;;;;-8.07;91.75;101763.38;4991338;28;20050;-64
2021/01/06 13:30:01;;;;;;;7.47;3.95;;;;;;;-8.09;91.50;101766.69;5004549;28;20046;-63
2021/01/06 13:32:50;;;;;;;6.22;3.35;;;;;;;-8.07;91.45;101767.56;4994698;28;20498;-64